sensor_id;sensor_type;location;lat;lon;timestamp;P1;durP1;ratioP1;P2;durP2;ratioP2
50213;SDS011;36103;54.176;12.070;2022-09-28T00:00:37;1.30;;;1.20;;
50213;SDS011;36103;54.176;12.070;2022-09-28T00:10:41;2.00;;;1.40;;
50213;SDS011;36103;54.176;12.070;2022-09-28T00:20:45;2.67;;;1.50;;
50213;SDS011;36103;54.176;12.070;2022-09-28T00:30:53;1.87;;;1.50;;
50213;SDS011;36103;54.176;12.070;2022-09-28T00:40:55;2.27;;;1.53;;
50213;SDS011;36103;54.176;12.070;2022-09-28T00:50:58;1.33;;;1.20;;
50213;SDS011;36103;54.176;12.070;2022-09-28T01:01:03;1.97;;;1.50;;
50213;SDS011;36103;54.176;12.070;2022-09-28T01:11:06;1.90;;;1.40;;
50213;SDS011;36103;54.176;12.070;2022-09-28T01:21:08;1.77;;;1.40;;
50213;SDS011;36103;54.176;12.070;2022-09-28T01:31:14;1.90;;;1.37;;
50213;SDS011;36103;54.176;12.070;2022-09-28T01:41:16;1.50;;;1.40;;
50213;SDS011;36103;54.176;12.070;2022-09-28T01:51:22;3.10;;;1.50;;
50213;SDS011;36103;54.176;12.070;2022-09-28T02:01:27;1.40;;;1.20;;
50213;SDS011;36103;54.176;12.070;2022-09-28T02:11:30;2.27;;;1.47;;
50213;SDS011;36103;54.176;12.070;2022-09-28T02:21:38;1.20;;;1.10;;
50213;SDS011;36103;54.176;12.070;2022-09-28T02:31:43;1.20;;;1.10;;
50213;SDS011;36103;54.176;12.070;2022-09-28T02:41:51;1.40;;;1.27;;
50213;SDS011;36103;54.176;12.070;2022-09-28T02:52:04;1.40;;;1.23;;
50213;SDS011;36103;54.176;12.070;2022-09-28T03:02:16;1.50;;;1.37;;
50213;SDS011;36103;54.176;12.070;2022-09-28T03:12:23;1.60;;;1.50;;
50213;SDS011;36103;54.176;12.070;2022-09-28T03:22:29;1.20;;;1.10;;
50213;SDS011;36103;54.176;12.070;2022-09-28T03:32:32;2.43;;;1.03;;
50213;SDS011;36103;54.176;12.070;2022-09-28T03:42:34;1.90;;;1.10;;
50213;SDS011;36103;54.176;12.070;2022-09-28T03:52:39;1.27;;;1.10;;
50213;SDS011;36103;54.176;12.070;2022-09-28T04:02:40;2.03;;;1.30;;
50213;SDS011;36103;54.176;12.070;2022-09-28T04:12:43;1.13;;;0.97;;
50213;SDS011;36103;54.176;12.070;2022-09-28T04:22:47;1.23;;;0.90;;
50213;SDS011;36103;54.176;12.070;2022-09-28T04:32:51;1.10;;;1.00;;
50213;SDS011;36103;54.176;12.070;2022-09-28T04:42:52;1.00;;;0.93;;
50213;SDS011;36103;54.176;12.070;2022-09-28T04:52:56;1.70;;;1.17;;
50213;SDS011;36103;54.176;12.070;2022-09-28T05:02:58;1.47;;;1.20;;
50213;SDS011;36103;54.176;12.070;2022-09-28T05:13:33;1.13;;;1.03;;
50213;SDS011;36103;54.176;12.070;2022-09-28T05:23:44;1.17;;;1.00;;
50213;SDS011;36103;54.176;12.070;2022-09-28T05:33:48;1.20;;;1.00;;
50213;SDS011;36103;54.176;12.070;2022-09-28T05:43:49;1.40;;;1.30;;
50213;SDS011;36103;54.176;12.070;2022-09-28T05:53:54;1.40;;;1.00;;
50213;SDS011;36103;54.176;12.070;2022-09-28T06:03:56;1.10;;;1.00;;
50213;SDS011;36103;54.176;12.070;2022-09-28T06:13:59;1.27;;;0.87;;
50213;SDS011;36103;54.176;12.070;2022-09-28T06:24:03;1.00;;;0.90;;
50213;SDS011;36103;54.176;12.070;2022-09-28T06:34:07;0.80;;;0.80;;
50213;SDS011;36103;54.176;12.070;2022-09-28T06:44:09;0.77;;;0.77;;
50213;SDS011;36103;54.176;12.070;2022-09-28T06:54:30;1.10;;;1.00;;
50213;SDS011;36103;54.176;12.070;2022-09-28T07:05:08;1.10;;;0.97;;
50213;SDS011;36103;54.176;12.070;2022-09-28T07:15:32;0.80;;;0.80;;
50213;SDS011;36103;54.176;12.070;2022-09-28T07:25:34;1.00;;;0.90;;
50213;SDS011;36103;54.176;12.070;2022-09-28T07:35:41;1.10;;;1.00;;
50213;SDS011;36103;54.176;12.070;2022-09-28T07:45:50;0.70;;;0.70;;
50213;SDS011;36103;54.176;12.070;2022-09-28T07:55:56;0.90;;;0.90;;
50213;SDS011;36103;54.176;12.070;2022-09-28T08:06:11;1.10;;;1.00;;
50213;SDS011;36103;54.176;12.070;2022-09-28T08:16:15;1.10;;;1.00;;
50213;SDS011;36103;54.176;12.070;2022-09-28T08:26:25;0.87;;;0.87;;
50213;SDS011;36103;54.176;12.070;2022-09-28T08:36:29;1.00;;;0.90;;
50213;SDS011;36103;54.176;12.070;2022-09-28T08:47:00;0.83;;;0.80;;
50213;SDS011;36103;54.176;12.070;2022-09-28T08:57:19;0.90;;;0.90;;
50213;SDS011;36103;54.176;12.070;2022-09-28T09:18:03;1.00;;;1.00;;
50213;SDS011;36103;54.176;12.070;2022-09-28T09:39:24;0.70;;;0.70;;
50213;SDS011;36103;54.176;12.070;2022-09-28T09:49:50;0.87;;;0.87;;
50213;SDS011;36103;54.176;12.070;2022-09-28T09:59:57;0.80;;;0.80;;
50213;SDS011;36103;54.176;12.070;2022-09-28T10:10:14;1.20;;;1.10;;
50213;SDS011;36103;54.176;12.070;2022-09-28T10:20:25;0.80;;;0.80;;
50213;SDS011;36103;54.176;12.070;2022-09-28T10:30:35;0.70;;;0.70;;
50213;SDS011;36103;54.176;12.070;2022-09-28T10:40:43;1.07;;;0.80;;
50213;SDS011;36103;54.176;12.070;2022-09-28T10:50:58;0.80;;;0.80;;
50213;SDS011;36103;54.176;12.070;2022-09-28T11:01:02;0.87;;;0.87;;
50213;SDS011;36103;54.176;12.070;2022-09-28T11:11:09;0.60;;;0.60;;
50213;SDS011;36103;54.176;12.070;2022-09-28T11:21:14;1.23;;;1.10;;
50213;SDS011;36103;54.176;12.070;2022-09-28T11:31:31;0.90;;;0.90;;
50213;SDS011;36103;54.176;12.070;2022-09-28T11:41:40;0.80;;;0.73;;
50213;SDS011;36103;54.176;12.070;2022-09-28T11:51:48;0.90;;;0.90;;
50213;SDS011;36103;54.176;12.070;2022-09-28T12:01:52;1.27;;;0.90;;
50213;SDS011;36103;54.176;12.070;2022-09-28T12:12:19;1.00;;;0.90;;
50213;SDS011;36103;54.176;12.070;2022-09-28T12:22:27;1.30;;;1.13;;
50213;SDS011;36103;54.176;12.070;2022-09-28T12:32:33;1.27;;;1.03;;
50213;SDS011;36103;54.176;12.070;2022-09-28T12:42:42;0.87;;;0.87;;
50213;SDS011;36103;54.176;12.070;2022-09-28T12:52:55;0.70;;;0.70;;
50213;SDS011;36103;54.176;12.070;2022-09-28T13:03:22;1.23;;;0.90;;
50213;SDS011;36103;54.176;12.070;2022-09-28T13:13:35;1.10;;;1.00;;
50213;SDS011;36103;54.176;12.070;2022-09-28T13:23:42;1.03;;;0.83;;
50213;SDS011;36103;54.176;12.070;2022-09-28T13:33:45;0.90;;;0.90;;
50213;SDS011;36103;54.176;12.070;2022-09-28T13:43:53;0.90;;;0.90;;
50213;SDS011;36103;54.176;12.070;2022-09-28T13:54:42;1.10;;;1.00;;
50213;SDS011;36103;54.176;12.070;2022-09-28T14:04:53;1.20;;;1.00;;
50213;SDS011;36103;54.176;12.070;2022-09-28T14:14:56;0.97;;;0.97;;
50213;SDS011;36103;54.176;12.070;2022-09-28T14:25:02;1.20;;;1.07;;
50213;SDS011;36103;54.176;12.070;2022-09-28T14:35:07;1.00;;;0.90;;
50213;SDS011;36103;54.176;12.070;2022-09-28T14:45:35;0.83;;;0.83;;
50213;SDS011;36103;54.176;12.070;2022-09-28T14:55:40;1.13;;;1.03;;
50213;SDS011;36103;54.176;12.070;2022-09-28T15:05:48;0.90;;;0.90;;
50213;SDS011;36103;54.176;12.070;2022-09-28T15:15:50;1.30;;;0.90;;
50213;SDS011;36103;54.176;12.070;2022-09-28T15:25:55;1.43;;;1.07;;
50213;SDS011;36103;54.176;12.070;2022-09-28T15:35:57;0.90;;;0.90;;
50213;SDS011;36103;54.176;12.070;2022-09-28T15:46:04;1.23;;;1.13;;
50213;SDS011;36103;54.176;12.070;2022-09-28T15:56:07;1.10;;;0.90;;
50213;SDS011;36103;54.176;12.070;2022-09-28T16:06:12;1.07;;;0.97;;
50213;SDS011;36103;54.176;12.070;2022-09-28T16:16:13;1.23;;;1.10;;
50213;SDS011;36103;54.176;12.070;2022-09-28T16:26:25;0.90;;;0.90;;
50213;SDS011;36103;54.176;12.070;2022-09-28T16:36:37;1.13;;;1.00;;
50213;SDS011;36103;54.176;12.070;2022-09-28T16:46:43;0.97;;;0.93;;
50213;SDS011;36103;54.176;12.070;2022-09-28T16:56:44;1.37;;;1.27;;
50213;SDS011;36103;54.176;12.070;2022-09-28T17:06:47;1.23;;;1.13;;
50213;SDS011;36103;54.176;12.070;2022-09-28T17:16:50;0.90;;;0.90;;
50213;SDS011;36103;54.176;12.070;2022-09-28T17:26:54;1.03;;;1.03;;
50213;SDS011;36103;54.176;12.070;2022-09-28T17:36:56;1.10;;;1.00;;
50213;SDS011;36103;54.176;12.070;2022-09-28T17:46:58;1.07;;;1.07;;
50213;SDS011;36103;54.176;12.070;2022-09-28T17:57:01;1.20;;;1.10;;
50213;SDS011;36103;54.176;12.070;2022-09-28T18:07:04;1.10;;;1.00;;
50213;SDS011;36103;54.176;12.070;2022-09-28T18:17:05;1.20;;;1.00;;
50213;SDS011;36103;54.176;12.070;2022-09-28T18:27:08;1.10;;;0.93;;
50213;SDS011;36103;54.176;12.070;2022-09-28T18:37:10;1.63;;;1.37;;
50213;SDS011;36103;54.176;12.070;2022-09-28T18:47:13;1.10;;;1.00;;
50213;SDS011;36103;54.176;12.070;2022-09-28T18:57:14;1.50;;;1.17;;
50213;SDS011;36103;54.176;12.070;2022-09-28T19:07:18;1.13;;;1.07;;
50213;SDS011;36103;54.176;12.070;2022-09-28T19:17:20;1.33;;;1.17;;
50213;SDS011;36103;54.176;12.070;2022-09-28T19:27:23;1.50;;;1.13;;
50213;SDS011;36103;54.176;12.070;2022-09-28T19:37:24;3.13;;;1.90;;
50213;SDS011;36103;54.176;12.070;2022-09-28T19:47:27;3.13;;;2.50;;
50213;SDS011;36103;54.176;12.070;2022-09-28T19:57:29;3.03;;;2.07;;
50213;SDS011;36103;54.176;12.070;2022-09-28T20:07:33;3.33;;;2.63;;
50213;SDS011;36103;54.176;12.070;2022-09-28T20:17:35;3.27;;;2.37;;
50213;SDS011;36103;54.176;12.070;2022-09-28T20:27:38;3.00;;;2.20;;
50213;SDS011;36103;54.176;12.070;2022-09-28T20:37:39;3.17;;;2.50;;
50213;SDS011;36103;54.176;12.070;2022-09-28T20:47:43;3.83;;;2.20;;
50213;SDS011;36103;54.176;12.070;2022-09-28T20:57:45;3.63;;;2.60;;
50213;SDS011;36103;54.176;12.070;2022-09-28T21:07:47;4.83;;;2.57;;
50213;SDS011;36103;54.176;12.070;2022-09-28T21:17:49;2.83;;;2.20;;
50213;SDS011;36103;54.176;12.070;2022-09-28T21:27:52;2.40;;;2.20;;
50213;SDS011;36103;54.176;12.070;2022-09-28T21:37:53;4.83;;;2.53;;
50213;SDS011;36103;54.176;12.070;2022-09-28T21:47:56;2.87;;;2.40;;
50213;SDS011;36103;54.176;12.070;2022-09-28T21:57:58;2.67;;;2.30;;
50213;SDS011;36103;54.176;12.070;2022-09-28T22:08:00;3.20;;;2.17;;
50213;SDS011;36103;54.176;12.070;2022-09-28T22:18:02;2.77;;;2.27;;
50213;SDS011;36103;54.176;12.070;2022-09-28T22:28:05;2.73;;;2.23;;
50213;SDS011;36103;54.176;12.070;2022-09-28T22:38:06;2.33;;;2.00;;
50213;SDS011;36103;54.176;12.070;2022-09-28T22:48:09;3.40;;;2.57;;
50213;SDS011;36103;54.176;12.070;2022-09-28T22:58:11;2.83;;;2.30;;
50213;SDS011;36103;54.176;12.070;2022-09-28T23:08:13;3.03;;;2.27;;
50213;SDS011;36103;54.176;12.070;2022-09-28T23:18:15;2.10;;;1.90;;
50213;SDS011;36103;54.176;12.070;2022-09-28T23:28:18;3.50;;;2.33;;
50213;SDS011;36103;54.176;12.070;2022-09-28T23:38:20;3.20;;;2.40;;
50213;SDS011;36103;54.176;12.070;2022-09-28T23:48:23;2.77;;;2.00;;
50213;SDS011;36103;54.176;12.070;2022-09-28T23:58:24;3.40;;;2.03;;
